createdAt,value
2023-03-24T00:05:18.786Z,93.02
2023-03-24T00:07:54.531Z,92.91
2023-03-24T00:10:25.322Z,92.84
2023-03-24T00:12:54.481Z,92.94
2023-03-24T00:15:24.152Z,92.65
2023-03-24T00:18:11.158Z,92.82
2023-03-24T00:20:42.809Z,92.79
2023-03-24T00:23:16.942Z,93.22
2023-03-24T00:25:46.002Z,93.27
2023-03-24T00:28:14.928Z,93.30
2023-03-24T00:30:43.993Z,93.21
2023-03-24T00:33:13.826Z,93.49
2023-03-24T00:35:45.930Z,93.38
2023-03-24T00:38:14.942Z,93.83
2023-03-24T00:40:48.990Z,93.92
2023-03-24T00:43:18.071Z,93.76
2023-03-24T00:45:48.436Z,93.54
2023-03-24T00:48:20.100Z,93.46
2023-03-24T00:50:53.326Z,93.94
2023-03-24T00:53:23.644Z,93.42
2023-03-24T00:55:53.070Z,94.01
2023-03-24T00:58:23.139Z,93.82
2023-03-24T01:00:55.951Z,94.00
2023-03-24T01:03:28.381Z,93.96
2023-03-24T01:06:09.061Z,93.68
2023-03-24T01:08:38.763Z,94.03
2023-03-24T01:11:09.234Z,94.46
2023-03-24T01:13:38.206Z,94.35
2023-03-24T01:16:12.893Z,94.00
2023-03-24T01:18:42.984Z,94.88
2023-03-24T01:21:35.449Z,94.36
2023-03-24T01:24:06.524Z,94.87
2023-03-24T01:26:41.303Z,94.45
2023-03-24T01:29:10.826Z,94.80
2023-03-24T01:31:42.016Z,95.06
2023-03-24T01:34:11.281Z,94.53
2023-03-24T01:36:51.043Z,94.59
2023-03-24T01:39:19.761Z,94.69
2023-03-24T01:41:48.897Z,94.91
2023-03-24T01:44:35.368Z,95.20
2023-03-24T01:47:08.280Z,95.24
2023-03-24T01:49:41.654Z,95.07
2023-03-24T01:52:19.310Z,95.03
2023-03-24T01:54:51.395Z,95.15
2023-03-24T01:57:28.244Z,95.08
2023-03-24T02:00:01.916Z,95.58
2023-03-24T02:02:35.072Z,95.27
2023-03-24T02:05:07.732Z,95.08
2023-03-24T02:07:46.793Z,95.52
2023-03-24T02:10:19.726Z,95.42
2023-03-24T02:12:50.995Z,95.44
2023-03-24T02:15:21.198Z,95.43
2023-03-24T02:18:02.245Z,96.01
2023-03-24T02:21:39.348Z,95.57
2023-03-24T02:25:10.165Z,95.47
2023-03-24T02:28:04.834Z,95.85
2023-03-24T02:31:03.563Z,95.76
2023-03-24T02:34:19.968Z,95.63
2023-03-24T02:37:52.527Z,95.45
2023-03-24T02:40:37.470Z,95.71
2023-03-24T02:43:22.736Z,95.55
2023-03-24T02:46:06.222Z,96.02
2023-03-24T02:48:47.037Z,95.79
2023-03-24T02:51:26.110Z,96.14
2023-03-24T02:54:07.379Z,96.21
2023-03-24T02:56:41.412Z,96.24
2023-03-24T02:59:20.225Z,95.87
2023-03-24T03:01:57.802Z,96.21
2023-03-24T03:04:34.177Z,96.07
2023-03-24T03:07:09.979Z,96.10
2023-03-24T03:09:43.220Z,96.59
2023-03-24T03:12:15.513Z,96.57
2023-03-24T03:14:53.713Z,96.69
2023-03-24T03:17:31.174Z,96.60
2023-03-24T03:20:05.355Z,96.68
2023-03-24T03:22:43.236Z,96.95
2023-03-24T03:25:15.740Z,97.08
2023-03-24T03:27:47.586Z,96.52
2023-03-24T03:30:23.522Z,97.16
2023-03-24T03:33:01.151Z,97.17
2023-03-24T03:35:36.588Z,97.16
2023-03-24T03:38:17.629Z,97.29
2023-03-24T03:40:54.759Z,97.26
2023-03-24T03:43:30.900Z,96.73
2023-03-24T03:46:01.569Z,96.99
2023-03-24T03:48:32.009Z,97.29
2023-03-24T03:51:13.077Z,97.58
2023-03-24T03:53:50.682Z,97.53
2023-03-24T03:56:22.048Z,97.90
2023-03-24T03:58:53.732Z,97.50
2023-03-24T04:01:28.459Z,96.83
2023-03-24T04:04:33.344Z,96.85
2023-03-24T04:07:17.464Z,97.04
2023-03-24T04:10:03.192Z,97.07
2023-03-24T04:13:09.953Z,97.10
2023-03-24T04:15:58.636Z,97.24
2023-03-24T04:19:35.208Z,97.13
2023-03-24T04:26:34.645Z,96.96
2023-03-24T04:30:27.423Z,96.83
2023-03-24T04:34:19.708Z,97.18
2023-03-24T04:37:03.308Z,96.61
2023-03-24T04:40:55.653Z,96.73
2023-03-24T04:48:12.202Z,96.58
2023-03-24T04:52:16.221Z,96.52
2023-03-24T04:57:57.629Z,96.68
2023-03-24T05:00:31.415Z,96.63
2023-03-24T05:03:00.293Z,96.19
2023-03-24T05:05:29.754Z,96.33
2023-03-24T05:08:00.347Z,96.39
2023-03-24T05:10:29.421Z,96.45
2023-03-24T05:12:58.320Z,96.38
2023-03-24T05:15:27.889Z,96.20
2023-03-24T05:17:57.084Z,96.10
2023-03-24T05:20:26.534Z,96.37
2023-03-24T05:22:56.045Z,96.05
2023-03-24T05:25:26.667Z,95.97
2023-03-24T05:27:55.710Z,95.76
2023-03-24T05:30:24.994Z,96.14
2023-03-24T05:32:53.828Z,96.15
2023-03-24T05:35:22.651Z,95.90
2023-03-24T05:37:51.284Z,95.60
2023-03-24T05:40:20.762Z,95.63
2023-03-24T05:42:52.187Z,95.37
2023-03-24T05:45:21.281Z,95.07
2023-03-24T05:47:51.481Z,94.69
2023-03-24T05:50:21.767Z,94.58
2023-03-24T05:52:50.967Z,94.44
2023-03-24T05:55:22.523Z,94.10
2023-03-24T05:57:52.424Z,93.77
2023-03-24T06:00:23.785Z,93.56
2023-03-24T06:02:52.686Z,93.60
2023-03-24T06:05:22.495Z,93.50
2023-03-24T06:07:51.580Z,93.27
2023-03-24T06:10:20.499Z,93.12
2023-03-24T06:12:49.514Z,93.02
2023-03-24T06:15:20.146Z,92.64
2023-03-24T06:17:50.371Z,91.72
2023-03-24T06:20:19.654Z,91.96
2023-03-24T06:22:50.742Z,92.30
2023-03-24T06:25:21.986Z,92.47
2023-03-24T06:27:52.156Z,92.29
2023-03-24T06:30:23.896Z,91.93
2023-03-24T06:32:52.824Z,91.91
2023-03-24T06:35:21.448Z,91.45
2023-03-24T06:37:50.323Z,91.24
2023-03-24T06:40:19.776Z,91.35
2023-03-24T06:42:49.776Z,91.21
2023-03-24T06:45:18.466Z,91.25
2023-03-24T06:47:48.973Z,91.01
2023-03-24T06:50:20.340Z,90.87
2023-03-24T06:52:48.924Z,90.81
2023-03-24T06:55:17.798Z,90.32
2023-03-24T06:57:49.480Z,90.39
2023-03-24T07:00:19.940Z,90.23
2023-03-24T07:02:50.188Z,89.84
2023-03-24T07:05:19.444Z,89.80
2023-03-24T07:10:21.958Z,89.32
2023-03-24T07:12:50.651Z,88.91
2023-03-24T07:15:19.350Z,89.06
2023-03-24T07:17:49.483Z,88.91
2023-03-24T07:20:18.470Z,88.92
2023-03-24T07:22:47.278Z,88.02
2023-03-24T07:25:20.149Z,88.35
2023-03-24T07:27:49.029Z,88.13
2023-03-24T07:30:20.565Z,87.72
2023-03-24T07:32:58.422Z,87.56
2023-03-24T07:35:28.156Z,87.07
2023-03-24T07:38:00.152Z,87.20
2023-03-24T07:40:30.450Z,87.14
2023-03-24T07:43:04.136Z,87.28
2023-03-24T07:45:33.066Z,86.80
2023-03-24T07:48:03.703Z,86.75
2023-03-24T07:50:33.320Z,86.23
2023-03-24T07:53:01.929Z,86.24
2023-03-24T07:55:30.835Z,86.10
2023-03-24T07:57:59.469Z,85.56
2023-03-24T08:00:29.624Z,85.33
2023-03-24T08:02:58.268Z,84.96
2023-03-24T08:05:31.181Z,85.09
2023-03-24T08:08:00.279Z,84.51
2023-03-24T08:10:30.782Z,84.67
2023-03-24T08:13:00.499Z,83.69
2023-03-24T08:15:30.327Z,84.00
2023-03-24T08:17:58.935Z,84.05
2023-03-24T08:20:29.788Z,83.93
2023-03-24T08:22:58.345Z,83.76
2023-03-24T08:25:29.004Z,83.75
2023-03-24T08:27:58.828Z,83.28
2023-03-24T08:30:29.462Z,83.13
2023-03-24T08:33:01.334Z,82.72
2023-03-24T08:35:35.276Z,82.67
2023-03-24T08:38:06.854Z,82.61
2023-03-24T08:40:37.492Z,82.25
2023-03-24T08:43:09.398Z,82.47
2023-03-24T08:45:39.835Z,82.50
2023-03-24T08:48:09.666Z,81.69
2023-03-24T08:50:42.310Z,81.67
2023-03-24T08:53:12.566Z,81.86
2023-03-24T08:55:43.963Z,81.31
2023-03-24T08:58:16.632Z,81.42
2023-03-24T09:00:46.588Z,80.89
2023-03-24T09:03:18.708Z,81.07
2023-03-24T09:05:49.785Z,80.18
2023-03-24T09:08:20.518Z,80.84
2023-03-24T09:10:49.926Z,80.92
2023-03-24T09:13:20.693Z,80.18
2023-03-24T09:15:51.904Z,79.11
2023-03-24T09:18:23.325Z,78.51
2023-03-24T09:20:53.616Z,77.70
2023-03-24T09:23:23.270Z,77.63
2023-03-24T09:25:52.398Z,76.49
2023-03-24T09:28:21.716Z,75.60
2023-03-24T09:30:50.507Z,75.55
2023-03-24T09:33:19.436Z,75.58
2023-03-24T09:35:59.729Z,75.88
2023-03-24T09:38:30.433Z,76.20
2023-03-24T09:41:03.154Z,75.69
2023-03-24T09:43:39.691Z,75.25
2023-03-24T09:46:14.936Z,74.71
2023-03-24T09:48:50.392Z,74.36
2023-03-24T09:51:26.454Z,74.49
2023-03-24T09:54:03.185Z,73.92
2023-03-24T09:56:34.152Z,73.16
2023-03-24T09:59:09.620Z,72.42
2023-03-24T10:01:38.612Z,72.67
2023-03-24T10:04:16.779Z,71.79
2023-03-24T10:06:49.196Z,71.93
2023-03-24T10:09:28.151Z,71.94
2023-03-24T10:12:12.708Z,71.32
2023-03-24T10:15:00.226Z,70.55
2023-03-24T10:17:42.916Z,69.00
2023-03-24T10:20:28.702Z,68.01
2023-03-24T10:23:15.650Z,67.88
2023-03-24T10:25:53.285Z,67.42
2023-03-24T10:28:26.338Z,67.06
2023-03-24T10:30:58.488Z,66.53
2023-03-24T10:33:30.912Z,67.02
2023-03-24T10:36:07.992Z,67.47
2023-03-24T10:38:38.362Z,67.02
2023-03-24T10:41:07.956Z,66.67
2023-03-24T10:43:36.871Z,67.51
2023-03-24T10:46:07.010Z,67.51
2023-03-24T10:48:46.006Z,67.64
2023-03-24T10:51:18.617Z,68.63
2023-03-24T10:53:50.734Z,68.55
2023-03-24T10:56:41.039Z,68.52
2023-03-24T10:59:26.699Z,69.01
2023-03-24T11:02:03.231Z,68.82
2023-03-24T11:04:34.025Z,68.51
2023-03-24T11:07:07.161Z,68.37
2023-03-24T11:09:44.911Z,67.88
2023-03-24T11:12:30.671Z,67.36
2023-03-24T11:15:22.081Z,66.77
2023-03-24T11:17:57.636Z,66.96
2023-03-24T11:20:33.700Z,67.19
2023-03-24T11:23:07.924Z,65.94
2023-03-24T11:25:41.544Z,65.11
2023-03-24T11:28:16.573Z,63.97
2023-03-24T11:30:50.839Z,64.03
2023-03-24T11:33:35.088Z,63.15
2023-03-24T11:36:27.847Z,61.38
2023-03-24T11:39:01.871Z,59.55
2023-03-24T11:41:32.304Z,57.62
2023-03-24T11:44:19.048Z,54.92
2023-03-24T11:46:53.098Z,55.04
2023-03-24T11:49:31.903Z,54.30
2023-03-24T11:52:01.972Z,53.86
2023-03-24T11:54:37.213Z,54.14
2023-03-24T11:57:14.047Z,53.86
2023-03-24T11:59:52.040Z,51.95
2023-03-24T12:02:40.865Z,51.84
2023-03-24T12:05:30.752Z,51.84
2023-03-24T12:08:26.715Z,51.63
2023-03-24T12:11:08.941Z,52.15
2023-03-24T12:13:43.287Z,53.04
2023-03-24T12:16:33.332Z,52.37
2023-03-24T12:19:43.792Z,52.71
2023-03-24T12:22:25.724Z,54.19
2023-03-24T12:25:30.655Z,54.21
2023-03-24T12:28:20.046Z,54.69
2023-03-24T12:31:11.413Z,55.22
2023-03-24T12:33:55.436Z,56.15
2023-03-24T12:36:48.029Z,55.73
2023-03-24T12:39:22.279Z,55.48
2023-03-24T12:42:13.202Z,54.87
2023-03-24T12:45:09.011Z,55.38
2023-03-24T12:48:21.007Z,54.96
2023-03-24T12:51:09.958Z,53.69
2023-03-24T12:53:53.721Z,54.38
2023-03-24T12:56:31.697Z,52.84
2023-03-24T12:59:06.329Z,52.22
2023-03-24T13:01:39.150Z,52.22
2023-03-24T13:04:16.921Z,52.19
2023-03-24T13:06:53.438Z,51.57
2023-03-24T13:09:37.360Z,49.41
2023-03-24T13:12:15.144Z,46.60
2023-03-24T13:14:54.911Z,45.02
2023-03-24T13:17:29.592Z,43.80
2023-03-24T13:20:01.702Z,42.62
2023-03-24T13:22:32.704Z,40.21
2023-03-24T13:25:03.152Z,39.07
2023-03-24T13:27:38.193Z,38.17
2023-03-24T13:30:31.641Z,37.80
2023-03-24T13:33:06.436Z,37.38
2023-03-24T13:41:28.843Z,38.64
2023-03-24T13:44:04.286Z,39.51
2023-03-24T13:46:33.380Z,40.59
2023-03-24T13:49:04.944Z,40.45
2023-03-24T13:51:38.739Z,41.16
2023-03-24T13:54:16.374Z,41.43
2023-03-24T13:56:57.162Z,41.20
2023-03-24T13:59:33.013Z,42.02
2023-03-24T14:02:23.571Z,42.55
2023-03-24T14:05:08.144Z,41.94
2023-03-24T14:07:47.799Z,41.54
2023-03-24T14:10:46.885Z,41.25
2023-03-24T14:13:48.283Z,40.72
2023-03-24T14:16:46.313Z,41.15
2023-03-24T14:19:29.065Z,42.11
2023-03-24T14:22:14.295Z,42.16
2023-03-24T14:24:47.169Z,42.89
2023-03-24T14:27:38.653Z,43.71
2023-03-24T14:30:22.400Z,43.24
2023-03-24T14:32:56.998Z,42.82
2023-03-24T14:35:38.047Z,41.74
2023-03-24T14:38:24.288Z,40.83
2023-03-24T14:41:02.487Z,39.73
2023-03-24T14:43:58.957Z,39.33
2023-03-24T14:46:47.882Z,39.24
2023-03-24T14:49:31.317Z,39.41
2023-03-24T14:52:05.272Z,38.41
2023-03-24T14:54:42.696Z,37.21
2023-03-24T14:57:21.615Z,38.73
2023-03-24T15:00:01.354Z,39.66
2023-03-24T15:02:42.242Z,39.20
2023-03-24T15:05:28.865Z,38.77
2023-03-24T15:08:13.546Z,37.57
2023-03-24T15:10:50.581Z,37.36
2023-03-24T15:13:37.889Z,37.09
2023-03-24T15:16:20.397Z,36.26
2023-03-24T15:19:01.366Z,36.44
2023-03-24T15:21:36.457Z,38.88
2023-03-24T15:24:30.023Z,40.81
2023-03-24T15:27:21.641Z,41.08
2023-03-24T15:29:59.493Z,40.75
2023-03-24T15:32:33.020Z,40.47
2023-03-24T15:35:12.905Z,39.01
2023-03-24T15:37:49.062Z,37.73
2023-03-24T15:40:41.619Z,37.48
2023-03-24T15:43:21.846Z,36.04
2023-03-24T15:46:01.429Z,35.59
2023-03-24T15:48:38.277Z,36.13
2023-03-24T15:51:13.681Z,38.09
2023-03-24T15:53:49.602Z,39.40
2023-03-24T15:56:27.174Z,40.47
2023-03-24T15:59:00.255Z,42.06
2023-03-24T16:01:36.637Z,43.37
2023-03-24T16:04:12.886Z,44.36
2023-03-24T16:06:52.903Z,45.75
2023-03-24T16:09:28.072Z,46.54
2023-03-24T16:11:58.744Z,46.89
2023-03-24T16:14:34.170Z,46.51
2023-03-24T16:17:04.839Z,47.39
2023-03-24T16:19:34.389Z,47.69
2023-03-24T16:22:09.962Z,48.43
2023-03-24T16:24:40.475Z,49.67
2023-03-24T16:27:10.983Z,50.18
2023-03-24T16:29:43.464Z,50.92
2023-03-24T16:32:12.821Z,51.46
2023-03-24T16:34:42.287Z,51.88
2023-03-24T16:37:12.762Z,52.67
2023-03-24T16:39:41.781Z,53.23
2023-03-24T16:42:11.203Z,53.10
2023-03-24T16:44:41.614Z,53.14
2023-03-24T16:47:13.036Z,52.73
2023-03-24T16:49:42.327Z,53.27
2023-03-24T16:52:16.459Z,53.22
2023-03-24T16:54:46.725Z,53.45
2023-03-24T16:57:16.735Z,53.58
2023-03-24T16:59:46.408Z,53.85
2023-03-24T17:02:17.671Z,54.13
2023-03-24T17:04:48.308Z,54.23
2023-03-24T17:07:18.915Z,54.29
2023-03-24T17:09:50.668Z,54.42
2023-03-24T17:12:22.618Z,54.27
2023-03-24T17:14:51.378Z,54.65
2023-03-24T17:17:25.572Z,55.39
2023-03-24T17:19:55.376Z,55.18
2023-03-24T17:22:27.209Z,55.61
2023-03-24T17:25:01.000Z,55.76
2023-03-24T17:27:45.839Z,55.97
2023-03-24T17:30:23.066Z,56.32
2023-03-24T17:32:57.434Z,56.36
2023-03-24T17:35:31.696Z,56.58
2023-03-24T17:38:10.560Z,56.95
2023-03-24T17:40:43.494Z,57.67
2023-03-24T17:43:15.435Z,58.55
2023-03-24T17:45:45.372Z,59.34
2023-03-24T17:48:20.386Z,60.25
2023-03-24T17:50:50.353Z,60.82
2023-03-24T17:53:26.776Z,62.03
2023-03-24T17:56:05.077Z,62.62
2023-03-24T17:58:37.750Z,62.87
2023-03-24T18:01:15.336Z,63.44
2023-03-24T18:03:44.421Z,64.08
2023-03-24T18:06:17.323Z,64.60
2023-03-24T18:08:47.892Z,65.11
2023-03-24T18:11:17.963Z,65.56
2023-03-24T18:13:47.247Z,66.58
2023-03-24T18:16:22.034Z,67.41
2023-03-24T18:18:52.790Z,67.88
2023-03-24T18:21:22.955Z,67.58
2023-03-24T18:23:56.461Z,68.28
2023-03-24T18:26:26.979Z,69.22
2023-03-24T18:28:57.011Z,69.26
2023-03-24T18:31:28.851Z,70.03
2023-03-24T18:33:58.343Z,70.26
2023-03-24T18:36:29.508Z,70.82
2023-03-24T18:39:02.056Z,70.73
2023-03-24T18:41:37.517Z,70.97
2023-03-24T18:44:09.331Z,71.04
2023-03-24T18:46:38.377Z,71.16
2023-03-24T18:49:08.696Z,71.39
2023-03-24T18:51:41.087Z,70.56
2023-03-24T18:54:13.436Z,70.57
2023-03-24T18:56:43.006Z,69.74
2023-03-24T18:59:12.740Z,69.29
2023-03-24T19:01:41.892Z,69.55
2023-03-24T19:04:11.315Z,69.15
2023-03-24T19:06:43.837Z,69.09
2023-03-24T19:09:20.262Z,69.17
2023-03-24T19:11:49.175Z,68.50
2023-03-24T19:14:18.696Z,68.12
2023-03-24T19:16:50.950Z,68.37
2023-03-24T19:19:20.586Z,68.37
2023-03-24T19:22:03.860Z,68.13
2023-03-24T19:24:35.282Z,68.08
2023-03-24T19:27:05.325Z,68.01
2023-03-24T19:29:34.845Z,68.08
2023-03-24T19:32:05.261Z,68.92
2023-03-24T19:34:33.844Z,69.32
2023-03-24T19:37:03.958Z,70.13
2023-03-24T19:39:34.831Z,70.54
2023-03-24T19:42:09.178Z,71.27
2023-03-24T19:44:38.498Z,71.80
2023-03-24T19:47:11.316Z,72.14
2023-03-24T19:49:40.833Z,72.33
2023-03-24T19:52:28.737Z,72.59
2023-03-24T19:55:00.363Z,72.72
2023-03-24T19:57:30.866Z,72.88
2023-03-24T20:00:00.663Z,73.09
2023-03-24T20:02:29.853Z,73.20
2023-03-24T20:05:00.162Z,73.50
2023-03-24T20:07:30.400Z,73.88
2023-03-24T20:10:01.360Z,74.27
2023-03-24T20:12:30.900Z,74.52
2023-03-24T20:15:00.946Z,74.77
2023-03-24T20:17:36.490Z,75.13
2023-03-24T20:20:08.083Z,75.71
2023-03-24T20:22:38.251Z,76.16
2023-03-24T20:25:12.143Z,76.28
2023-03-24T20:27:41.695Z,76.46
2023-03-24T20:30:13.530Z,76.73
2023-03-24T20:32:42.675Z,77.19
2023-03-24T20:35:13.779Z,77.25
2023-03-24T20:37:42.945Z,77.41
2023-03-24T20:40:14.380Z,77.19
2023-03-24T20:42:43.878Z,77.63
2023-03-24T20:45:17.904Z,78.03
2023-03-24T20:47:47.570Z,77.94
2023-03-24T20:50:18.527Z,78.29
2023-03-24T20:52:47.737Z,78.69
2023-03-24T20:55:19.471Z,78.35
2023-03-24T20:57:48.761Z,78.30
2023-03-24T21:00:20.606Z,78.23
2023-03-24T21:02:49.962Z,78.34
2023-03-24T21:05:19.230Z,78.60
2023-03-24T21:07:48.508Z,78.56
2023-03-24T21:10:28.547Z,78.55
2023-03-24T21:12:58.219Z,78.81
2023-03-24T21:15:30.733Z,78.84
2023-03-24T21:18:00.990Z,78.83
2023-03-24T21:20:31.762Z,78.79
2023-03-24T21:23:04.500Z,78.36
2023-03-24T21:25:51.285Z,78.82
2023-03-24T21:28:28.456Z,78.58
2023-03-24T21:30:58.628Z,78.29
2023-03-24T21:33:29.316Z,78.01
2023-03-24T21:36:01.504Z,77.92
2023-03-24T21:38:30.906Z,77.84
2023-03-24T21:41:02.378Z,77.66
2023-03-24T21:43:32.337Z,77.50
2023-03-24T21:46:05.077Z,77.32
2023-03-24T21:48:35.240Z,77.56
2023-03-24T21:51:05.582Z,77.61
2023-03-24T21:53:35.258Z,77.23
2023-03-24T21:56:11.061Z,77.26
2023-03-24T21:58:42.253Z,77.21
2023-03-24T22:01:21.975Z,77.51
2023-03-24T22:03:54.533Z,77.48
2023-03-24T22:06:30.243Z,77.63
2023-03-24T22:09:06.823Z,77.66
2023-03-24T22:11:43.013Z,77.81
2023-03-24T22:14:13.189Z,78.00
2023-03-24T22:16:43.187Z,78.22
2023-03-24T22:19:17.886Z,78.51
2023-03-24T22:21:50.550Z,78.62
2023-03-24T22:24:25.960Z,78.69
2023-03-24T22:26:59.199Z,78.73
2023-03-24T22:29:30.205Z,78.77
2023-03-24T22:32:00.354Z,78.98
2023-03-24T22:34:31.001Z,78.73
2023-03-24T22:37:01.041Z,78.77
2023-03-24T22:39:33.452Z,78.96
2023-03-24T22:42:04.090Z,78.78
2023-03-24T22:44:34.139Z,78.49
2023-03-24T22:47:05.247Z,78.41
2023-03-24T22:49:34.545Z,78.53
2023-03-24T22:52:05.128Z,77.83
2023-03-24T22:54:34.645Z,77.75
2023-03-24T22:57:05.433Z,77.45
2023-03-24T22:59:44.613Z,77.68
2023-03-24T23:02:15.920Z,77.77
2023-03-24T23:04:51.673Z,77.38
2023-03-24T23:07:24.294Z,77.42
2023-03-24T23:09:53.483Z,76.99
2023-03-24T23:12:25.774Z,76.84
2023-03-24T23:14:56.849Z,76.83
2023-03-24T23:17:26.860Z,76.58
2023-03-24T23:19:56.682Z,76.42
2023-03-24T23:22:27.050Z,75.92
2023-03-24T23:25:02.688Z,75.91
2023-03-24T23:27:37.881Z,75.77
2023-03-24T23:30:11.583Z,75.63
2023-03-24T23:32:44.290Z,75.62
2023-03-24T23:35:16.082Z,75.12
2023-03-24T23:37:45.372Z,74.91
2023-03-24T23:40:16.895Z,74.72
2023-03-24T23:42:50.738Z,74.69
2023-03-24T23:45:22.594Z,74.85
2023-03-24T23:47:52.901Z,74.34
2023-03-24T23:50:38.471Z,74.67
2023-03-24T23:53:12.893Z,74.78
2023-03-24T23:55:53.200Z,74.70
2023-03-24T23:58:33.587Z,74.67
